sensor_id;sensor_type;location;lat;lon;timestamp;P1;durP1;ratioP1;P2;durP2;ratioP2
64094;SDS011;50353;51.420;5.682;2023-01-26T00:01:21;72.75;;;35.13;;
64094;SDS011;50353;51.420;5.682;2023-01-26T00:03:49;68.97;;;33.85;;
64094;SDS011;50353;51.420;5.682;2023-01-26T00:06:16;72.63;;;34.08;;
64094;SDS011;50353;51.420;5.682;2023-01-26T00:08:44;68.20;;;34.25;;
64094;SDS011;50353;51.420;5.682;2023-01-26T00:11:12;70.32;;;33.47;;
64094;SDS011;50353;51.420;5.682;2023-01-26T00:13:39;65.65;;;30.63;;
64094;SDS011;50353;51.420;5.682;2023-01-26T00:16:12;66.43;;;31.35;;
64094;SDS011;50353;51.420;5.682;2023-01-26T00:18:39;66.28;;;33.78;;
64094;SDS011;50353;51.420;5.682;2023-01-26T00:21:07;72.75;;;33.95;;
64094;SDS011;50353;51.420;5.682;2023-01-26T00:23:35;66.82;;;32.58;;
64094;SDS011;50353;51.420;5.682;2023-01-26T00:26:00;69.30;;;32.50;;
64094;SDS011;50353;51.420;5.682;2023-01-26T00:28:26;70.78;;;34.05;;
64094;SDS011;50353;51.420;5.682;2023-01-26T00:30:52;70.10;;;33.33;;
64094;SDS011;50353;51.420;5.682;2023-01-26T00:33:18;59.58;;;29.80;;
64094;SDS011;50353;51.420;5.682;2023-01-26T00:35:44;66.65;;;34.63;;
64094;SDS011;50353;51.420;5.682;2023-01-26T00:38:18;64.95;;;33.28;;
64094;SDS011;50353;51.420;5.682;2023-01-26T00:40:43;68.40;;;34.55;;
64094;SDS011;50353;51.420;5.682;2023-01-26T00:43:08;64.53;;;31.52;;
64094;SDS011;50353;51.420;5.682;2023-01-26T00:45:34;66.82;;;32.00;;
64094;SDS011;50353;51.420;5.682;2023-01-26T00:47:59;68.22;;;33.03;;
64094;SDS011;50353;51.420;5.682;2023-01-26T00:50:25;57.60;;;29.15;;
64094;SDS011;50353;51.420;5.682;2023-01-26T00:52:50;65.05;;;32.20;;
64094;SDS011;50353;51.420;5.682;2023-01-26T00:55:17;63.08;;;31.60;;
64094;SDS011;50353;51.420;5.682;2023-01-26T00:57:43;59.60;;;29.38;;
64094;SDS011;50353;51.420;5.682;2023-01-26T01:00:08;62.85;;;32.08;;
64094;SDS011;50353;51.420;5.682;2023-01-26T01:02:37;56.83;;;27.95;;
64094;SDS011;50353;51.420;5.682;2023-01-26T01:05:02;66.03;;;32.47;;
64094;SDS011;50353;51.420;5.682;2023-01-26T01:07:28;63.20;;;31.05;;
64094;SDS011;50353;51.420;5.682;2023-01-26T01:09:53;58.72;;;30.13;;
64094;SDS011;50353;51.420;5.682;2023-01-26T01:12:18;61.30;;;31.15;;
64094;SDS011;50353;51.420;5.682;2023-01-26T01:14:44;57.90;;;29.85;;
64094;SDS011;50353;51.420;5.682;2023-01-26T01:17:09;57.58;;;27.83;;
64094;SDS011;50353;51.420;5.682;2023-01-26T01:19:34;62.83;;;31.25;;
64094;SDS011;50353;51.420;5.682;2023-01-26T01:22:00;54.65;;;27.35;;
64094;SDS011;50353;51.420;5.682;2023-01-26T01:24:25;58.83;;;28.65;;
64094;SDS011;50353;51.420;5.682;2023-01-26T01:26:50;58.13;;;29.63;;
64094;SDS011;50353;51.420;5.682;2023-01-26T01:29:16;61.00;;;29.25;;
64094;SDS011;50353;51.420;5.682;2023-01-26T01:31:41;63.35;;;30.40;;
64094;SDS011;50353;51.420;5.682;2023-01-26T01:34:07;62.05;;;29.23;;
64094;SDS011;50353;51.420;5.682;2023-01-26T01:36:32;61.22;;;30.02;;
64094;SDS011;50353;51.420;5.682;2023-01-26T01:38:57;64.50;;;31.27;;
64094;SDS011;50353;51.420;5.682;2023-01-26T01:41:23;67.65;;;31.80;;
64094;SDS011;50353;51.420;5.682;2023-01-26T01:43:49;65.00;;;31.00;;
64094;SDS011;50353;51.420;5.682;2023-01-26T01:48:57;59.03;;;29.17;;
64094;SDS011;50353;51.420;5.682;2023-01-26T01:51:40;59.28;;;30.63;;
64094;SDS011;50353;51.420;5.682;2023-01-26T01:54:13;58.92;;;29.35;;
64094;SDS011;50353;51.420;5.682;2023-01-26T01:56:41;61.38;;;30.85;;
64094;SDS011;50353;51.420;5.682;2023-01-26T01:59:12;57.83;;;30.42;;
64094;SDS011;50353;51.420;5.682;2023-01-26T02:01:38;58.58;;;29.75;;
64094;SDS011;50353;51.420;5.682;2023-01-26T02:04:04;52.55;;;26.48;;
64094;SDS011;50353;51.420;5.682;2023-01-26T02:09:03;56.83;;;28.70;;
64094;SDS011;50353;51.420;5.682;2023-01-26T02:11:48;51.58;;;26.70;;
64094;SDS011;50353;51.420;5.682;2023-01-26T02:14:13;55.90;;;27.95;;
64094;SDS011;50353;51.420;5.682;2023-01-26T02:16:39;55.90;;;29.40;;
64094;SDS011;50353;51.420;5.682;2023-01-26T02:19:10;58.58;;;29.50;;
64094;SDS011;50353;51.420;5.682;2023-01-26T02:24:11;55.50;;;27.95;;
64094;SDS011;50353;51.420;5.682;2023-01-26T02:26:45;60.72;;;28.80;;
64094;SDS011;50353;51.420;5.682;2023-01-26T02:29:11;56.88;;;27.92;;
64094;SDS011;50353;51.420;5.682;2023-01-26T02:31:37;54.95;;;28.70;;
64094;SDS011;50353;51.420;5.682;2023-01-26T02:34:03;50.50;;;25.85;;
64094;SDS011;50353;51.420;5.682;2023-01-26T02:36:29;54.33;;;27.67;;
64094;SDS011;50353;51.420;5.682;2023-01-26T02:38:59;54.90;;;27.80;;
64094;SDS011;50353;51.420;5.682;2023-01-26T02:41:26;49.47;;;26.05;;
64094;SDS011;50353;51.420;5.682;2023-01-26T02:44:10;54.50;;;28.13;;
64094;SDS011;50353;51.420;5.682;2023-01-26T02:46:37;55.60;;;27.45;;
64094;SDS011;50353;51.420;5.682;2023-01-26T02:49:02;56.22;;;28.95;;
64094;SDS011;50353;51.420;5.682;2023-01-26T02:51:47;56.92;;;28.15;;
64094;SDS011;50353;51.420;5.682;2023-01-26T02:54:12;53.13;;;28.10;;
64094;SDS011;50353;51.420;5.682;2023-01-26T02:56:57;58.08;;;29.20;;
64094;SDS011;50353;51.420;5.682;2023-01-26T02:59:23;56.53;;;28.95;;
64094;SDS011;50353;51.420;5.682;2023-01-26T03:01:48;54.97;;;27.45;;
64094;SDS011;50353;51.420;5.682;2023-01-26T03:04:16;53.58;;;28.25;;
64094;SDS011;50353;51.420;5.682;2023-01-26T03:06:41;50.35;;;26.65;;
64094;SDS011;50353;51.420;5.682;2023-01-26T03:09:06;55.00;;;28.67;;
64094;SDS011;50353;51.420;5.682;2023-01-26T03:11:31;54.80;;;27.80;;
64094;SDS011;50353;51.420;5.682;2023-01-26T03:14:06;53.78;;;25.98;;
64094;SDS011;50353;51.420;5.682;2023-01-26T03:16:31;55.10;;;27.52;;
64094;SDS011;50353;51.420;5.682;2023-01-26T03:18:57;52.92;;;27.63;;
64094;SDS011;50353;51.420;5.682;2023-01-26T03:21:28;56.50;;;27.25;;
64094;SDS011;50353;51.420;5.682;2023-01-26T03:24:12;55.10;;;27.48;;
64094;SDS011;50353;51.420;5.682;2023-01-26T03:26:56;46.40;;;23.88;;
64094;SDS011;50353;51.420;5.682;2023-01-26T03:29:40;51.25;;;26.73;;
64094;SDS011;50353;51.420;5.682;2023-01-26T03:32:06;51.22;;;25.45;;
64094;SDS011;50353;51.420;5.682;2023-01-26T03:34:31;54.80;;;28.05;;
64094;SDS011;50353;51.420;5.682;2023-01-26T03:36:57;51.53;;;26.58;;
64094;SDS011;50353;51.420;5.682;2023-01-26T03:39:22;49.97;;;26.50;;
64094;SDS011;50353;51.420;5.682;2023-01-26T03:42:06;47.13;;;23.80;;
64094;SDS011;50353;51.420;5.682;2023-01-26T03:44:50;52.08;;;26.98;;
64094;SDS011;50353;51.420;5.682;2023-01-26T03:47:34;55.15;;;28.35;;
64094;SDS011;50353;51.420;5.682;2023-01-26T03:50:19;51.78;;;27.75;;
64094;SDS011;50353;51.420;5.682;2023-01-26T03:53:11;51.83;;;26.20;;
64094;SDS011;50353;51.420;5.682;2023-01-26T03:55:58;48.92;;;26.58;;
64094;SDS011;50353;51.420;5.682;2023-01-26T03:58:45;49.28;;;26.60;;
64094;SDS011;50353;51.420;5.682;2023-01-26T04:01:12;52.60;;;27.15;;
64094;SDS011;50353;51.420;5.682;2023-01-26T04:03:43;51.20;;;27.67;;
64094;SDS011;50353;51.420;5.682;2023-01-26T04:06:28;52.13;;;26.38;;
64094;SDS011;50353;51.420;5.682;2023-01-26T04:09:12;49.10;;;26.75;;
64094;SDS011;50353;51.420;5.682;2023-01-26T04:11:37;49.78;;;25.63;;
64094;SDS011;50353;51.420;5.682;2023-01-26T04:14:02;47.65;;;25.50;;
64094;SDS011;50353;51.420;5.682;2023-01-26T04:16:46;47.72;;;25.98;;
64094;SDS011;50353;51.420;5.682;2023-01-26T04:19:30;47.60;;;24.95;;
64094;SDS011;50353;51.420;5.682;2023-01-26T04:22:14;45.70;;;24.58;;
64094;SDS011;50353;51.420;5.682;2023-01-26T04:24:39;52.30;;;26.20;;
64094;SDS011;50353;51.420;5.682;2023-01-26T04:27:04;46.70;;;25.95;;
64094;SDS011;50353;51.420;5.682;2023-01-26T04:29:30;48.40;;;25.38;;
64094;SDS011;50353;51.420;5.682;2023-01-26T04:31:55;42.13;;;23.90;;
64094;SDS011;50353;51.420;5.682;2023-01-26T04:34:20;44.05;;;24.10;;
64094;SDS011;50353;51.420;5.682;2023-01-26T04:36:46;44.63;;;23.92;;
64094;SDS011;50353;51.420;5.682;2023-01-26T04:39:11;44.58;;;23.48;;
64094;SDS011;50353;51.420;5.682;2023-01-26T04:41:36;40.33;;;22.92;;
64094;SDS011;50353;51.420;5.682;2023-01-26T04:44:01;40.55;;;22.58;;
64094;SDS011;50353;51.420;5.682;2023-01-26T04:46:27;40.97;;;23.13;;
64094;SDS011;50353;51.420;5.682;2023-01-26T04:48:52;39.08;;;21.70;;
64094;SDS011;50353;51.420;5.682;2023-01-26T04:51:18;40.22;;;22.58;;
64094;SDS011;50353;51.420;5.682;2023-01-26T04:53:45;39.95;;;22.23;;
64094;SDS011;50353;51.420;5.682;2023-01-26T04:56:14;40.80;;;21.08;;
64094;SDS011;50353;51.420;5.682;2023-01-26T04:58:45;40.08;;;21.98;;
64094;SDS011;50353;51.420;5.682;2023-01-26T05:01:11;38.50;;;22.70;;
64094;SDS011;50353;51.420;5.682;2023-01-26T05:03:36;40.47;;;22.05;;
64094;SDS011;50353;51.420;5.682;2023-01-26T05:06:01;38.05;;;21.23;;
64094;SDS011;50353;51.420;5.682;2023-01-26T05:08:27;43.85;;;23.60;;
64094;SDS011;50353;51.420;5.682;2023-01-26T05:10:52;37.13;;;21.20;;
64094;SDS011;50353;51.420;5.682;2023-01-26T05:13:17;38.22;;;21.35;;
64094;SDS011;50353;51.420;5.682;2023-01-26T05:15:43;34.25;;;19.88;;
64094;SDS011;50353;51.420;5.682;2023-01-26T05:18:08;37.00;;;20.73;;
64094;SDS011;50353;51.420;5.682;2023-01-26T05:20:35;36.57;;;19.90;;
64094;SDS011;50353;51.420;5.682;2023-01-26T05:23:00;35.10;;;20.10;;
64094;SDS011;50353;51.420;5.682;2023-01-26T05:25:25;34.80;;;19.10;;
64094;SDS011;50353;51.420;5.682;2023-01-26T05:27:51;30.63;;;18.25;;
64094;SDS011;50353;51.420;5.682;2023-01-26T05:30:17;32.20;;;18.00;;
64094;SDS011;50353;51.420;5.682;2023-01-26T05:32:43;27.17;;;16.35;;
64094;SDS011;50353;51.420;5.682;2023-01-26T05:35:08;28.85;;;17.58;;
64094;SDS011;50353;51.420;5.682;2023-01-26T05:37:34;28.92;;;17.63;;
64094;SDS011;50353;51.420;5.682;2023-01-26T05:39:59;33.35;;;19.05;;
64094;SDS011;50353;51.420;5.682;2023-01-26T05:42:25;32.20;;;17.67;;
64094;SDS011;50353;51.420;5.682;2023-01-26T05:44:51;30.38;;;17.55;;
64094;SDS011;50353;51.420;5.682;2023-01-26T05:47:17;28.17;;;17.15;;
64094;SDS011;50353;51.420;5.682;2023-01-26T05:49:43;29.30;;;17.38;;
64094;SDS011;50353;51.420;5.682;2023-01-26T05:52:16;25.50;;;15.18;;
64094;SDS011;50353;51.420;5.682;2023-01-26T05:54:43;30.05;;;17.23;;
64094;SDS011;50353;51.420;5.682;2023-01-26T05:57:09;29.00;;;16.92;;
64094;SDS011;50353;51.420;5.682;2023-01-26T05:59:35;27.63;;;16.00;;
64094;SDS011;50353;51.420;5.682;2023-01-26T06:02:01;26.83;;;15.52;;
64094;SDS011;50353;51.420;5.682;2023-01-26T06:04:26;28.92;;;16.70;;
64094;SDS011;50353;51.420;5.682;2023-01-26T06:06:52;25.05;;;15.70;;
64094;SDS011;50353;51.420;5.682;2023-01-26T06:09:18;24.75;;;14.32;;
64094;SDS011;50353;51.420;5.682;2023-01-26T06:11:44;25.08;;;14.68;;
64094;SDS011;50353;51.420;5.682;2023-01-26T06:14:09;30.38;;;15.55;;
64094;SDS011;50353;51.420;5.682;2023-01-26T06:16:34;26.08;;;15.52;;
64094;SDS011;50353;51.420;5.682;2023-01-26T06:19:00;24.13;;;14.77;;
64094;SDS011;50353;51.420;5.682;2023-01-26T06:21:25;24.50;;;14.13;;
64094;SDS011;50353;51.420;5.682;2023-01-26T06:23:50;24.55;;;14.77;;
64094;SDS011;50353;51.420;5.682;2023-01-26T06:26:16;23.63;;;14.15;;
64094;SDS011;50353;51.420;5.682;2023-01-26T06:28:41;24.30;;;14.00;;
64094;SDS011;50353;51.420;5.682;2023-01-26T06:31:07;25.63;;;15.00;;
64094;SDS011;50353;51.420;5.682;2023-01-26T06:33:34;26.23;;;14.80;;
64094;SDS011;50353;51.420;5.682;2023-01-26T06:36:04;27.73;;;15.30;;
64094;SDS011;50353;51.420;5.682;2023-01-26T06:38:31;24.00;;;14.15;;
64094;SDS011;50353;51.420;5.682;2023-01-26T06:41:04;24.13;;;13.88;;
64094;SDS011;50353;51.420;5.682;2023-01-26T06:43:31;26.30;;;14.45;;
64094;SDS011;50353;51.420;5.682;2023-01-26T06:45:58;24.52;;;14.57;;
64094;SDS011;50353;51.420;5.682;2023-01-26T06:48:24;24.73;;;14.70;;
64094;SDS011;50353;51.420;5.682;2023-01-26T06:50:51;25.40;;;14.35;;
64094;SDS011;50353;51.420;5.682;2023-01-26T06:53:32;22.23;;;12.95;;
64094;SDS011;50353;51.420;5.682;2023-01-26T06:55:58;25.08;;;14.70;;
64094;SDS011;50353;51.420;5.682;2023-01-26T06:58:24;24.15;;;14.07;;
64094;SDS011;50353;51.420;5.682;2023-01-26T07:00:49;24.05;;;14.20;;
64094;SDS011;50353;51.420;5.682;2023-01-26T07:03:15;19.73;;;12.35;;
64094;SDS011;50353;51.420;5.682;2023-01-26T07:05:40;24.48;;;13.90;;
64094;SDS011;50353;51.420;5.682;2023-01-26T07:08:06;24.02;;;14.32;;
64094;SDS011;50353;51.420;5.682;2023-01-26T07:10:32;22.10;;;12.85;;
64094;SDS011;50353;51.420;5.682;2023-01-26T07:13:02;23.35;;;12.38;;
64094;SDS011;50353;51.420;5.682;2023-01-26T07:15:28;27.40;;;14.30;;
64094;SDS011;50353;51.420;5.682;2023-01-26T07:17:55;25.52;;;13.98;;
64094;SDS011;50353;51.420;5.682;2023-01-26T07:20:21;23.70;;;13.48;;
64094;SDS011;50353;51.420;5.682;2023-01-26T07:22:47;22.23;;;12.30;;
64094;SDS011;50353;51.420;5.682;2023-01-26T07:25:12;24.90;;;13.82;;
64094;SDS011;50353;51.420;5.682;2023-01-26T07:27:37;23.80;;;13.27;;
64094;SDS011;50353;51.420;5.682;2023-01-26T07:30:03;26.38;;;13.68;;
64094;SDS011;50353;51.420;5.682;2023-01-26T07:32:29;27.40;;;14.55;;
64094;SDS011;50353;51.420;5.682;2023-01-26T07:34:55;26.42;;;14.13;;
64094;SDS011;50353;51.420;5.682;2023-01-26T07:37:20;27.83;;;14.75;;
64094;SDS011;50353;51.420;5.682;2023-01-26T07:39:46;27.02;;;14.27;;
64094;SDS011;50353;51.420;5.682;2023-01-26T07:42:12;24.95;;;14.00;;
64094;SDS011;50353;51.420;5.682;2023-01-26T07:44:38;26.80;;;14.18;;
64094;SDS011;50353;51.420;5.682;2023-01-26T07:47:03;24.30;;;13.35;;
64094;SDS011;50353;51.420;5.682;2023-01-26T07:49:28;25.60;;;14.07;;
64094;SDS011;50353;51.420;5.682;2023-01-26T07:51:54;24.20;;;13.95;;
64094;SDS011;50353;51.420;5.682;2023-01-26T07:54:20;23.60;;;12.55;;
64094;SDS011;50353;51.420;5.682;2023-01-26T07:56:45;25.40;;;13.60;;
64094;SDS011;50353;51.420;5.682;2023-01-26T07:59:14;23.92;;;13.10;;
64094;SDS011;50353;51.420;5.682;2023-01-26T08:01:39;22.85;;;12.43;;
64094;SDS011;50353;51.420;5.682;2023-01-26T08:04:05;23.90;;;12.88;;
64094;SDS011;50353;51.420;5.682;2023-01-26T08:06:31;26.42;;;14.70;;
64094;SDS011;50353;51.420;5.682;2023-01-26T08:08:56;23.05;;;12.38;;
64094;SDS011;50353;51.420;5.682;2023-01-26T08:11:21;22.92;;;13.18;;
64094;SDS011;50353;51.420;5.682;2023-01-26T08:13:49;27.20;;;13.63;;
64094;SDS011;50353;51.420;5.682;2023-01-26T08:16:15;23.25;;;12.57;;
64094;SDS011;50353;51.420;5.682;2023-01-26T08:18:41;27.80;;;13.45;;
64094;SDS011;50353;51.420;5.682;2023-01-26T08:21:08;24.67;;;12.95;;
64094;SDS011;50353;51.420;5.682;2023-01-26T08:23:34;23.15;;;12.98;;
64094;SDS011;50353;51.420;5.682;2023-01-26T08:26:02;24.27;;;12.45;;
64094;SDS011;50353;51.420;5.682;2023-01-26T08:28:29;24.13;;;13.32;;
64094;SDS011;50353;51.420;5.682;2023-01-26T08:30:54;25.38;;;13.73;;
64094;SDS011;50353;51.420;5.682;2023-01-26T08:33:20;24.00;;;12.95;;
64094;SDS011;50353;51.420;5.682;2023-01-26T08:35:45;24.10;;;12.93;;
64094;SDS011;50353;51.420;5.682;2023-01-26T08:38:10;24.67;;;13.50;;
64094;SDS011;50353;51.420;5.682;2023-01-26T08:40:36;23.00;;;12.60;;
64094;SDS011;50353;51.420;5.682;2023-01-26T08:43:02;23.27;;;12.85;;
64094;SDS011;50353;51.420;5.682;2023-01-26T08:45:27;25.17;;;13.00;;
64094;SDS011;50353;51.420;5.682;2023-01-26T08:47:53;26.70;;;13.90;;
64094;SDS011;50353;51.420;5.682;2023-01-26T08:50:18;21.98;;;12.18;;
64094;SDS011;50353;51.420;5.682;2023-01-26T08:52:43;26.15;;;13.52;;
64094;SDS011;50353;51.420;5.682;2023-01-26T08:55:09;20.15;;;11.82;;
64094;SDS011;50353;51.420;5.682;2023-01-26T08:57:34;25.23;;;12.57;;
64094;SDS011;50353;51.420;5.682;2023-01-26T09:00:00;23.35;;;13.05;;
64094;SDS011;50353;51.420;5.682;2023-01-26T09:02:25;28.17;;;13.70;;
64094;SDS011;50353;51.420;5.682;2023-01-26T09:04:50;23.77;;;13.13;;
64094;SDS011;50353;51.420;5.682;2023-01-26T09:07:16;24.35;;;12.63;;
64094;SDS011;50353;51.420;5.682;2023-01-26T09:09:41;22.25;;;12.73;;
64094;SDS011;50353;51.420;5.682;2023-01-26T09:12:06;24.63;;;12.70;;
64094;SDS011;50353;51.420;5.682;2023-01-26T09:14:32;23.17;;;12.73;;
64094;SDS011;50353;51.420;5.682;2023-01-26T09:16:57;38.28;;;20.60;;
64094;SDS011;50353;51.420;5.682;2023-01-26T09:19:22;23.52;;;13.20;;
64094;SDS011;50353;51.420;5.682;2023-01-26T09:21:51;24.52;;;12.65;;
64094;SDS011;50353;51.420;5.682;2023-01-26T09:24:20;22.83;;;11.85;;
64094;SDS011;50353;51.420;5.682;2023-01-26T09:26:45;23.50;;;11.77;;
64094;SDS011;50353;51.420;5.682;2023-01-26T09:29:11;22.50;;;12.23;;
64094;SDS011;50353;51.420;5.682;2023-01-26T09:31:36;25.02;;;12.52;;
64094;SDS011;50353;51.420;5.682;2023-01-26T09:34:01;25.13;;;12.00;;
64094;SDS011;50353;51.420;5.682;2023-01-26T09:36:27;24.42;;;12.48;;
64094;SDS011;50353;51.420;5.682;2023-01-26T09:38:52;24.35;;;12.32;;
64094;SDS011;50353;51.420;5.682;2023-01-26T09:41:42;26.02;;;12.35;;
64094;SDS011;50353;51.420;5.682;2023-01-26T09:44:32;24.48;;;11.88;;
64094;SDS011;50353;51.420;5.682;2023-01-26T09:47:06;28.73;;;13.50;;
64094;SDS011;50353;51.420;5.682;2023-01-26T09:52:22;28.70;;;12.98;;
64094;SDS011;50353;51.420;5.682;2023-01-26T09:54:52;27.48;;;12.98;;
64094;SDS011;50353;51.420;5.682;2023-01-26T09:57:21;28.90;;;12.55;;
64094;SDS011;50353;51.420;5.682;2023-01-26T10:05:29;31.75;;;13.85;;
64094;SDS011;50353;51.420;5.682;2023-01-26T10:08:07;23.88;;;11.50;;
64094;SDS011;50353;51.420;5.682;2023-01-26T10:10:40;30.40;;;13.63;;
64094;SDS011;50353;51.420;5.682;2023-01-26T10:13:22;34.25;;;14.02;;
64094;SDS011;50353;51.420;5.682;2023-01-26T10:15:50;30.83;;;14.23;;
64094;SDS011;50353;51.420;5.682;2023-01-26T10:18:21;36.03;;;15.10;;
64094;SDS011;50353;51.420;5.682;2023-01-26T10:20:54;34.78;;;14.68;;
64094;SDS011;50353;51.420;5.682;2023-01-26T10:23:29;34.80;;;14.73;;
64094;SDS011;50353;51.420;5.682;2023-01-26T10:26:30;32.28;;;14.02;;
64094;SDS011;50353;51.420;5.682;2023-01-26T10:28:49;32.20;;;14.52;;
64094;SDS011;50353;51.420;5.682;2023-01-26T10:31:19;32.28;;;14.07;;
64094;SDS011;50353;51.420;5.682;2023-01-26T10:34:00;36.42;;;14.48;;
64094;SDS011;50353;51.420;5.682;2023-01-26T10:36:28;43.97;;;14.43;;
64094;SDS011;50353;51.420;5.682;2023-01-26T10:39:01;33.63;;;14.48;;
64094;SDS011;50353;51.420;5.682;2023-01-26T10:41:29;30.30;;;14.30;;
64094;SDS011;50353;51.420;5.682;2023-01-26T10:43:56;40.35;;;15.93;;
64094;SDS011;50353;51.420;5.682;2023-01-26T10:51:33;116.72;;;58.22;;
64094;SDS011;50353;51.420;5.682;2023-01-26T10:54:20;38.08;;;17.27;;
64094;SDS011;50353;51.420;5.682;2023-01-26T10:56:54;39.53;;;14.93;;
64094;SDS011;50353;51.420;5.682;2023-01-26T11:01:59;40.67;;;15.80;;
64094;SDS011;50353;51.420;5.682;2023-01-26T11:04:34;44.53;;;16.93;;
64094;SDS011;50353;51.420;5.682;2023-01-26T11:07:13;44.60;;;16.40;;
64094;SDS011;50353;51.420;5.682;2023-01-26T11:09:49;37.17;;;15.90;;
64094;SDS011;50353;51.420;5.682;2023-01-26T11:12:19;38.27;;;16.13;;
64094;SDS011;50353;51.420;5.682;2023-01-26T11:15:02;34.40;;;14.45;;
64094;SDS011;50353;51.420;5.682;2023-01-26T11:17:37;40.83;;;17.05;;
64094;SDS011;50353;51.420;5.682;2023-01-26T11:20:20;45.22;;;16.30;;
64094;SDS011;50353;51.420;5.682;2023-01-26T11:22:53;46.75;;;17.88;;
64094;SDS011;50353;51.420;5.682;2023-01-26T11:31:33;41.65;;;16.52;;
64094;SDS011;50353;51.420;5.682;2023-01-26T11:36:56;47.65;;;17.83;;
64094;SDS011;50353;51.420;5.682;2023-01-26T11:39:57;43.28;;;17.42;;
64094;SDS011;50353;51.420;5.682;2023-01-26T11:42:46;47.50;;;16.88;;
64094;SDS011;50353;51.420;5.682;2023-01-26T11:53:54;43.08;;;17.25;;
64094;SDS011;50353;51.420;5.682;2023-01-26T12:01:40;54.03;;;18.15;;
64094;SDS011;50353;51.420;5.682;2023-01-26T12:04:13;48.22;;;16.98;;
64094;SDS011;50353;51.420;5.682;2023-01-26T12:06:44;59.15;;;19.33;;
64094;SDS011;50353;51.420;5.682;2023-01-26T12:09:25;50.95;;;19.13;;
64094;SDS011;50353;51.420;5.682;2023-01-26T12:29:00;54.95;;;16.55;;
64094;SDS011;50353;51.420;5.682;2023-01-26T12:32:03;47.88;;;16.02;;
64094;SDS011;50353;51.420;5.682;2023-01-26T12:34:34;45.00;;;15.57;;
64094;SDS011;50353;51.420;5.682;2023-01-26T12:42:42;39.92;;;13.98;;
64094;SDS011;50353;51.420;5.682;2023-01-26T12:45:53;41.05;;;14.07;;
64094;SDS011;50353;51.420;5.682;2023-01-26T12:48:17;43.13;;;14.00;;
64094;SDS011;50353;51.420;5.682;2023-01-26T12:50:58;41.70;;;14.07;;
64094;SDS011;50353;51.420;5.682;2023-01-26T12:53:34;48.05;;;14.05;;
64094;SDS011;50353;51.420;5.682;2023-01-26T12:56:15;36.05;;;12.68;;
64094;SDS011;50353;51.420;5.682;2023-01-26T12:58:50;42.53;;;13.55;;
64094;SDS011;50353;51.420;5.682;2023-01-26T13:01:18;44.70;;;12.60;;
64094;SDS011;50353;51.420;5.682;2023-01-26T13:03:53;42.20;;;13.07;;
64094;SDS011;50353;51.420;5.682;2023-01-26T13:06:21;53.03;;;13.90;;
64094;SDS011;50353;51.420;5.682;2023-01-26T13:08:58;43.03;;;13.15;;
64094;SDS011;50353;51.420;5.682;2023-01-26T13:16:54;45.83;;;11.77;;
64094;SDS011;50353;51.420;5.682;2023-01-26T13:19:34;45.03;;;12.60;;
64094;SDS011;50353;51.420;5.682;2023-01-26T13:24:48;41.65;;;11.93;;
64094;SDS011;50353;51.420;5.682;2023-01-26T13:29:55;36.28;;;11.05;;
64094;SDS011;50353;51.420;5.682;2023-01-26T13:34:50;49.22;;;12.10;;
64094;SDS011;50353;51.420;5.682;2023-01-26T13:37:34;39.38;;;11.70;;
64094;SDS011;50353;51.420;5.682;2023-01-26T13:48:35;41.70;;;12.15;;
64094;SDS011;50353;51.420;5.682;2023-01-26T13:51:06;45.25;;;12.77;;
64094;SDS011;50353;51.420;5.682;2023-01-26T13:53:40;38.35;;;11.60;;
64094;SDS011;50353;51.420;5.682;2023-01-26T13:56:19;37.80;;;12.18;;
64094;SDS011;50353;51.420;5.682;2023-01-26T13:58:47;43.33;;;12.38;;
64094;SDS011;50353;51.420;5.682;2023-01-26T14:01:13;36.10;;;11.57;;
64094;SDS011;50353;51.420;5.682;2023-01-26T14:03:39;44.92;;;11.93;;
64094;SDS011;50353;51.420;5.682;2023-01-26T14:06:12;39.70;;;12.35;;
64094;SDS011;50353;51.420;5.682;2023-01-26T14:08:50;45.40;;;11.77;;
64094;SDS011;50353;51.420;5.682;2023-01-26T14:11:19;39.03;;;12.02;;
64094;SDS011;50353;51.420;5.682;2023-01-26T14:13:53;47.78;;;12.38;;
64094;SDS011;50353;51.420;5.682;2023-01-26T14:16:31;33.83;;;11.32;;
64094;SDS011;50353;51.420;5.682;2023-01-26T14:21:50;39.90;;;10.52;;
64094;SDS011;50353;51.420;5.682;2023-01-26T14:24:23;37.70;;;8.90;;
64094;SDS011;50353;51.420;5.682;2023-01-26T14:27:00;37.72;;;9.45;;
64094;SDS011;50353;51.420;5.682;2023-01-26T14:29:28;30.83;;;7.93;;
64094;SDS011;50353;51.420;5.682;2023-01-26T14:31:58;30.15;;;8.15;;
64094;SDS011;50353;51.420;5.682;2023-01-26T14:34:25;33.13;;;7.72;;
64094;SDS011;50353;51.420;5.682;2023-01-26T14:37:12;30.42;;;9.57;;
64094;SDS011;50353;51.420;5.682;2023-01-26T14:39:39;32.97;;;7.10;;
64094;SDS011;50353;51.420;5.682;2023-01-26T14:42:07;28.33;;;6.70;;
64094;SDS011;50353;51.420;5.682;2023-01-26T14:44:44;24.63;;;5.85;;
64094;SDS011;50353;51.420;5.682;2023-01-26T14:47:27;24.85;;;5.75;;
64094;SDS011;50353;51.420;5.682;2023-01-26T14:49:59;23.55;;;4.85;;
64094;SDS011;50353;51.420;5.682;2023-01-26T14:52:30;22.13;;;4.30;;
64094;SDS011;50353;51.420;5.682;2023-01-26T14:55:03;19.42;;;3.92;;
64094;SDS011;50353;51.420;5.682;2023-01-26T14:57:37;22.10;;;3.97;;
64094;SDS011;50353;51.420;5.682;2023-01-26T15:00:03;17.60;;;4.00;;
64094;SDS011;50353;51.420;5.682;2023-01-26T15:02:34;16.85;;;3.80;;
64094;SDS011;50353;51.420;5.682;2023-01-26T15:05:02;19.00;;;4.00;;
64094;SDS011;50353;51.420;5.682;2023-01-26T15:15:36;18.20;;;4.43;;
64094;SDS011;50353;51.420;5.682;2023-01-26T15:18:05;25.17;;;5.03;;
64094;SDS011;50353;51.420;5.682;2023-01-26T15:20:53;22.73;;;5.90;;
64094;SDS011;50353;51.420;5.682;2023-01-26T15:23:30;16.67;;;3.55;;
64094;SDS011;50353;51.420;5.682;2023-01-26T15:26:07;22.90;;;4.10;;
64094;SDS011;50353;51.420;5.682;2023-01-26T15:28:34;19.85;;;3.97;;
64094;SDS011;50353;51.420;5.682;2023-01-26T15:31:01;19.67;;;3.67;;
64094;SDS011;50353;51.420;5.682;2023-01-26T15:38:58;19.85;;;3.55;;
64094;SDS011;50353;51.420;5.682;2023-01-26T15:41:36;19.70;;;3.80;;
64094;SDS011;50353;51.420;5.682;2023-01-26T15:44:01;14.63;;;3.10;;
64094;SDS011;50353;51.420;5.682;2023-01-26T15:46:27;17.50;;;3.60;;
64094;SDS011;50353;51.420;5.682;2023-01-26T15:48:52;17.92;;;3.38;;
64094;SDS011;50353;51.420;5.682;2023-01-26T15:51:18;20.42;;;3.80;;
64094;SDS011;50353;51.420;5.682;2023-01-26T15:53:43;19.25;;;5.03;;
64094;SDS011;50353;51.420;5.682;2023-01-26T15:56:10;15.35;;;3.55;;
64094;SDS011;50353;51.420;5.682;2023-01-26T15:58:37;18.88;;;2.90;;
64094;SDS011;50353;51.420;5.682;2023-01-26T16:01:02;16.52;;;3.20;;
64094;SDS011;50353;51.420;5.682;2023-01-26T16:03:28;14.32;;;3.00;;
64094;SDS011;50353;51.420;5.682;2023-01-26T16:05:53;11.73;;;2.53;;
64094;SDS011;50353;51.420;5.682;2023-01-26T16:08:19;17.17;;;3.45;;
64094;SDS011;50353;51.420;5.682;2023-01-26T16:10:44;12.93;;;2.90;;
64094;SDS011;50353;51.420;5.682;2023-01-26T16:13:11;13.40;;;3.63;;
64094;SDS011;50353;51.420;5.682;2023-01-26T16:15:53;16.65;;;3.40;;
64094;SDS011;50353;51.420;5.682;2023-01-26T16:18:19;14.18;;;3.38;;
64094;SDS011;50353;51.420;5.682;2023-01-26T16:20:45;15.70;;;2.88;;
64094;SDS011;50353;51.420;5.682;2023-01-26T16:23:16;14.45;;;3.00;;
64094;SDS011;50353;51.420;5.682;2023-01-26T16:25:44;14.40;;;2.67;;